sensor_id;sensor_type;location;lat;lon;timestamp;P1;durP1;ratioP1;P2;durP2;ratioP2
41943;SDS011;27636;52.610;13.244;2022-10-18T03:22:26;18.00;;;7.93;;
41943;SDS011;27636;52.610;13.244;2022-10-18T03:27:30;14.60;;;8.02;;
41943;SDS011;27636;52.610;13.244;2022-10-18T03:38:30;15.13;;;7.00;;
41943;SDS011;27636;52.610;13.244;2022-10-18T03:43:33;12.37;;;6.83;;
41943;SDS011;27636;52.610;13.244;2022-10-18T03:48:36;19.15;;;8.02;;
41943;SDS011;27636;52.610;13.244;2022-10-18T03:53:40;12.70;;;6.00;;
41943;SDS011;27636;52.610;13.244;2022-10-18T03:58:43;11.03;;;6.57;;
41943;SDS011;27636;52.610;13.244;2022-10-18T04:03:47;15.25;;;6.57;;
41943;SDS011;27636;52.610;13.244;2022-10-18T04:08:51;14.02;;;6.47;;
41943;SDS011;27636;52.610;13.244;2022-10-18T04:13:56;11.65;;;5.63;;
41943;SDS011;27636;52.610;13.244;2022-10-18T04:18:59;12.65;;;6.22;;
41943;SDS011;27636;52.610;13.244;2022-10-18T04:24:05;12.95;;;5.97;;
41943;SDS011;27636;52.610;13.244;2022-10-18T04:29:08;13.88;;;7.05;;
41943;SDS011;27636;52.610;13.244;2022-10-18T04:34:11;13.07;;;5.93;;
41943;SDS011;27636;52.610;13.244;2022-10-18T04:39:16;11.15;;;5.80;;
41943;SDS011;27636;52.610;13.244;2022-10-18T04:44:19;17.10;;;7.27;;
41943;SDS011;27636;52.610;13.244;2022-10-18T04:49:23;14.15;;;6.40;;
41943;SDS011;27636;52.610;13.244;2022-10-18T04:54:27;12.32;;;6.40;;
41943;SDS011;27636;52.610;13.244;2022-10-18T04:59:31;14.25;;;6.90;;
41943;SDS011;27636;52.610;13.244;2022-10-18T05:04:34;13.32;;;6.43;;
41943;SDS011;27636;52.610;13.244;2022-10-18T05:09:38;14.63;;;7.25;;
41943;SDS011;27636;52.610;13.244;2022-10-18T05:14:41;27.87;;;9.50;;
41943;SDS011;27636;52.610;13.244;2022-10-18T05:19:44;19.77;;;8.25;;
41943;SDS011;27636;52.610;13.244;2022-10-18T05:24:49;18.65;;;8.18;;
41943;SDS011;27636;52.610;13.244;2022-10-18T05:29:52;23.85;;;8.77;;
41943;SDS011;27636;52.610;13.244;2022-10-18T05:34:56;19.80;;;8.10;;
41943;SDS011;27636;52.610;13.244;2022-10-18T05:40:00;21.58;;;8.25;;
41943;SDS011;27636;52.610;13.244;2022-10-18T05:45:03;16.83;;;8.50;;
41943;SDS011;27636;52.610;13.244;2022-10-18T05:50:07;20.77;;;9.20;;
41943;SDS011;27636;52.610;13.244;2022-10-18T05:55:12;18.92;;;8.30;;
41943;SDS011;27636;52.610;13.244;2022-10-18T06:00:17;19.77;;;9.10;;
41943;SDS011;27636;52.610;13.244;2022-10-18T06:05:21;19.58;;;8.93;;
41943;SDS011;27636;52.610;13.244;2022-10-18T06:10:33;16.23;;;8.68;;
41943;SDS011;27636;52.610;13.244;2022-10-18T06:15:40;18.27;;;7.95;;
41943;SDS011;27636;52.610;13.244;2022-10-18T06:20:44;23.42;;;9.02;;
41943;SDS011;27636;52.610;13.244;2022-10-18T06:25:48;14.07;;;7.45;;
41943;SDS011;27636;52.610;13.244;2022-10-18T06:30:52;19.60;;;8.07;;
41943;SDS011;27636;52.610;13.244;2022-10-18T06:35:56;22.17;;;9.48;;
41943;SDS011;27636;52.610;13.244;2022-10-18T06:41:03;18.13;;;7.85;;
41943;SDS011;27636;52.610;13.244;2022-10-18T06:46:07;15.52;;;6.90;;
41943;SDS011;27636;52.610;13.244;2022-10-18T06:51:11;16.67;;;6.43;;
41943;SDS011;27636;52.610;13.244;2022-10-18T06:56:16;17.10;;;7.03;;
41943;SDS011;27636;52.610;13.244;2022-10-18T07:01:20;13.95;;;6.82;;
41943;SDS011;27636;52.610;13.244;2022-10-18T07:06:24;20.35;;;7.85;;
41943;SDS011;27636;52.610;13.244;2022-10-18T07:11:29;16.77;;;6.55;;
41943;SDS011;27636;52.610;13.244;2022-10-18T07:16:32;15.30;;;7.15;;
41943;SDS011;27636;52.610;13.244;2022-10-18T07:21:36;18.65;;;7.82;;
41943;SDS011;27636;52.610;13.244;2022-10-18T07:26:41;14.85;;;7.22;;
41943;SDS011;27636;52.610;13.244;2022-10-18T07:31:45;17.10;;;7.53;;
41943;SDS011;27636;52.610;13.244;2022-10-18T07:36:49;14.20;;;7.32;;
41943;SDS011;27636;52.610;13.244;2022-10-18T07:41:53;13.50;;;6.68;;
41943;SDS011;27636;52.610;13.244;2022-10-18T07:46:57;20.08;;;7.10;;
41943;SDS011;27636;52.610;13.244;2022-10-18T11:44:54;16.88;;;7.30;;
41943;SDS011;27636;52.610;13.244;2022-10-18T11:50:15;17.40;;;8.07;;
41943;SDS011;27636;52.610;13.244;2022-10-18T11:55:30;18.85;;;7.65;;
41943;SDS011;27636;52.610;13.244;2022-10-18T12:00:46;15.23;;;7.10;;
41943;SDS011;27636;52.610;13.244;2022-10-18T12:05:54;16.17;;;7.22;;
41943;SDS011;27636;52.610;13.244;2022-10-18T12:11:02;17.02;;;7.38;;
41943;SDS011;27636;52.610;13.244;2022-10-18T12:16:12;16.92;;;7.05;;
41943;SDS011;27636;52.610;13.244;2022-10-18T12:21:17;19.23;;;7.65;;
41943;SDS011;27636;52.610;13.244;2022-10-18T12:26:27;21.83;;;9.07;;
41943;SDS011;27636;52.610;13.244;2022-10-18T12:31:33;25.15;;;8.35;;
41943;SDS011;27636;52.610;13.244;2022-10-18T12:36:45;24.77;;;8.80;;
41943;SDS011;27636;52.610;13.244;2022-10-18T12:41:57;16.45;;;8.07;;
41943;SDS011;27636;52.610;13.244;2022-10-18T12:47:02;14.23;;;6.78;;
41943;SDS011;27636;52.610;13.244;2022-10-18T12:52:17;17.70;;;6.78;;
41943;SDS011;27636;52.610;13.244;2022-10-18T12:57:24;14.75;;;7.18;;
41943;SDS011;27636;52.610;13.244;2022-10-18T13:02:49;16.55;;;7.75;;
41943;SDS011;27636;52.610;13.244;2022-10-18T13:30:10;15.68;;;6.93;;
41943;SDS011;27636;52.610;13.244;2022-10-18T13:35:43;19.55;;;8.95;;
41943;SDS011;27636;52.610;13.244;2022-10-18T14:47:16;15.93;;;7.72;;
41943;SDS011;27636;52.610;13.244;2022-10-18T14:52:24;20.60;;;8.25;;
41943;SDS011;27636;52.610;13.244;2022-10-18T14:57:33;17.95;;;8.07;;
41943;SDS011;27636;52.610;13.244;2022-10-18T15:02:40;19.77;;;8.45;;
41943;SDS011;27636;52.610;13.244;2022-10-18T15:07:43;16.77;;;7.95;;
41943;SDS011;27636;52.610;13.244;2022-10-18T15:12:47;17.77;;;7.97;;
41943;SDS011;27636;52.610;13.244;2022-10-18T15:18:16;16.75;;;7.57;;
41943;SDS011;27636;52.610;13.244;2022-10-18T15:23:23;17.20;;;7.22;;
41943;SDS011;27636;52.610;13.244;2022-10-18T15:33:34;17.15;;;7.68;;
41943;SDS011;27636;52.610;13.244;2022-10-18T15:38:37;17.40;;;7.83;;
41943;SDS011;27636;52.610;13.244;2022-10-18T15:43:40;17.67;;;7.82;;
41943;SDS011;27636;52.610;13.244;2022-10-18T15:48:45;16.65;;;8.27;;
41943;SDS011;27636;52.610;13.244;2022-10-18T15:53:49;16.55;;;7.43;;
41943;SDS011;27636;52.610;13.244;2022-10-18T15:58:54;18.27;;;7.60;;
41943;SDS011;27636;52.610;13.244;2022-10-18T16:09:08;18.38;;;8.00;;
41943;SDS011;27636;52.610;13.244;2022-10-18T16:14:15;16.83;;;7.68;;
41943;SDS011;27636;52.610;13.244;2022-10-18T16:19:19;16.83;;;7.82;;
41943;SDS011;27636;52.610;13.244;2022-10-18T16:24:24;26.55;;;8.85;;
41943;SDS011;27636;52.610;13.244;2022-10-18T16:29:27;21.15;;;7.82;;
41943;SDS011;27636;52.610;13.244;2022-10-18T16:34:35;19.65;;;8.07;;
41943;SDS011;27636;52.610;13.244;2022-10-18T16:39:38;17.90;;;7.03;;
41943;SDS011;27636;52.610;13.244;2022-10-18T16:44:41;22.25;;;9.73;;
41943;SDS011;27636;52.610;13.244;2022-10-18T16:49:46;24.50;;;6.97;;
41943;SDS011;27636;52.610;13.244;2022-10-18T16:54:49;14.73;;;6.87;;
41943;SDS011;27636;52.610;13.244;2022-10-18T16:59:52;16.75;;;7.18;;
41943;SDS011;27636;52.610;13.244;2022-10-18T17:04:57;26.63;;;9.60;;
41943;SDS011;27636;52.610;13.244;2022-10-18T17:10:00;25.73;;;10.23;;
41943;SDS011;27636;52.610;13.244;2022-10-18T17:15:04;24.15;;;9.93;;
41943;SDS011;27636;52.610;13.244;2022-10-18T17:20:14;29.53;;;10.40;;
41943;SDS011;27636;52.610;13.244;2022-10-18T17:25:20;20.35;;;8.88;;
41943;SDS011;27636;52.610;13.244;2022-10-18T18:51:29;30.38;;;12.18;;
41943;SDS011;27636;52.610;13.244;2022-10-18T18:56:35;32.58;;;13.25;;
41943;SDS011;27636;52.610;13.244;2022-10-18T19:01:42;34.57;;;13.77;;
41943;SDS011;27636;52.610;13.244;2022-10-18T19:06:48;39.95;;;14.60;;
41943;SDS011;27636;52.610;13.244;2022-10-18T19:11:53;33.67;;;15.87;;
41943;SDS011;27636;52.610;13.244;2022-10-18T19:17:00;33.00;;;13.68;;
41943;SDS011;27636;52.610;13.244;2022-10-18T19:22:04;36.20;;;14.38;;
41943;SDS011;27636;52.610;13.244;2022-10-18T19:27:11;34.58;;;13.45;;
41943;SDS011;27636;52.610;13.244;2022-10-18T19:32:15;30.23;;;12.70;;
41943;SDS011;27636;52.610;13.244;2022-10-18T19:37:20;29.63;;;12.68;;
41943;SDS011;27636;52.610;13.244;2022-10-18T19:42:24;35.95;;;13.50;;
41943;SDS011;27636;52.610;13.244;2022-10-18T19:47:36;35.35;;;13.98;;
41943;SDS011;27636;52.610;13.244;2022-10-18T19:52:41;38.13;;;14.40;;
41943;SDS011;27636;52.610;13.244;2022-10-18T19:57:44;38.53;;;13.50;;
41943;SDS011;27636;52.610;13.244;2022-10-18T20:02:49;37.47;;;11.82;;
41943;SDS011;27636;52.610;13.244;2022-10-18T20:07:52;33.60;;;12.05;;
41943;SDS011;27636;52.610;13.244;2022-10-18T20:12:56;31.90;;;12.25;;
41943;SDS011;27636;52.610;13.244;2022-10-18T21:46:28;17.55;;;6.72;;
41943;SDS011;27636;52.610;13.244;2022-10-18T22:20:31;14.25;;;5.00;;
41943;SDS011;27636;52.610;13.244;2022-10-18T22:25:34;22.90;;;5.60;;
41943;SDS011;27636;52.610;13.244;2022-10-18T22:30:39;11.82;;;5.38;;
41943;SDS011;27636;52.610;13.244;2022-10-18T22:35:48;9.53;;;3.97;;
41943;SDS011;27636;52.610;13.244;2022-10-18T22:40:52;13.40;;;5.18;;
41943;SDS011;27636;52.610;13.244;2022-10-18T22:45:58;12.82;;;4.35;;
41943;SDS011;27636;52.610;13.244;2022-10-18T22:51:03;14.45;;;4.07;;
41943;SDS011;27636;52.610;13.244;2022-10-18T22:56:07;13.85;;;4.78;;
41943;SDS011;27636;52.610;13.244;2022-10-18T23:01:13;9.70;;;4.10;;
41943;SDS011;27636;52.610;13.244;2022-10-18T23:06:21;9.35;;;3.40;;
41943;SDS011;27636;52.610;13.244;2022-10-18T23:11:26;19.65;;;5.00;;
